Arlington, Oregon
Current Conditions -  °F | °C
As of 11:53 PM on Tuesday 25 Nov 2014 (Local Time) from KHRI Reporting Station
Haze Haze  
Wind Chill: 34°   Ceiling: Unl
Heat Index: 38°   Visibility: 6mi
Dew Point: 36°   Wind: 5mph
Humidity: 93%   Direction: 220°SW
Pressure: 30.19"   Gusts: NA
Location:  45.72°N, 120.2°W
Report Text: KHRI 260753Z AUTO 22004KT 6SM BR CLR 03/02 A3019 RMK AO2 SLP223 T00330022 401940022
Loading
Personal Weather Stations






























Interactive Weather Map New forecast layout! Learn more

10-Day Weather Forecast

Advertisements
Track Severe Weather on mobile